sensor_id;sensor_type;location;lat;lon;timestamp;temperature;humidity
2663;DHT22;49701;48.072;7.800;2022-07-10T00:00:30;19.40;99.90
2663;DHT22;49701;48.072;7.800;2022-07-10T00:02:56;19.40;99.90
2663;DHT22;49701;48.072;7.800;2022-07-10T00:05:23;19.40;99.90
2663;DHT22;49701;48.072;7.800;2022-07-10T00:07:49;19.40;99.90
2663;DHT22;49701;48.072;7.800;2022-07-10T00:10:16;19.50;99.90
2663;DHT22;49701;48.072;7.800;2022-07-10T00:12:42;19.40;99.90
2663;DHT22;49701;48.072;7.800;2022-07-10T00:15:08;19.40;99.90
2663;DHT22;49701;48.072;7.800;2022-07-10T00:17:34;19.40;99.90
2663;DHT22;49701;48.072;7.800;2022-07-10T00:20:01;19.50;99.90
2663;DHT22;49701;48.072;7.800;2022-07-10T00:22:26;19.40;99.90
2663;DHT22;49701;48.072;7.800;2022-07-10T00:24:52;19.40;99.90
2663;DHT22;49701;48.072;7.800;2022-07-10T00:27:18;19.40;99.90
2663;DHT22;49701;48.072;7.800;2022-07-10T00:29:44;19.40;99.90
2663;DHT22;49701;48.072;7.800;2022-07-10T00:32:10;19.40;99.90
2663;DHT22;49701;48.072;7.800;2022-07-10T00:34:36;19.40;99.90
2663;DHT22;49701;48.072;7.800;2022-07-10T00:37:03;19.40;99.90
2663;DHT22;49701;48.072;7.800;2022-07-10T00:39:29;19.40;99.90
2663;DHT22;49701;48.072;7.800;2022-07-10T00:41:54;19.50;99.90
2663;DHT22;49701;48.072;7.800;2022-07-10T00:44:20;19.50;99.90
2663;DHT22;49701;48.072;7.800;2022-07-10T00:46:46;19.50;99.90
2663;DHT22;49701;48.072;7.800;2022-07-10T00:49:11;19.40;99.90
2663;DHT22;49701;48.072;7.800;2022-07-10T00:51:37;19.40;99.90
2663;DHT22;49701;48.072;7.800;2022-07-10T00:54:04;19.40;99.90
2663;DHT22;49701;48.072;7.800;2022-07-10T00:56:31;19.50;99.90
2663;DHT22;49701;48.072;7.800;2022-07-10T00:58:57;19.50;99.90
2663;DHT22;49701;48.072;7.800;2022-07-10T01:01:23;19.40;99.90
2663;DHT22;49701;48.072;7.800;2022-07-10T01:03:49;19.50;99.90
2663;DHT22;49701;48.072;7.800;2022-07-10T01:06:15;19.50;99.90
2663;DHT22;49701;48.072;7.800;2022-07-10T01:08:42;19.50;99.90
2663;DHT22;49701;48.072;7.800;2022-07-10T01:11:09;19.50;99.90
2663;DHT22;49701;48.072;7.800;2022-07-10T01:13:35;19.50;99.90
2663;DHT22;49701;48.072;7.800;2022-07-10T01:16:01;19.50;99.90
2663;DHT22;49701;48.072;7.800;2022-07-10T01:18:27;19.50;99.90
2663;DHT22;49701;48.072;7.800;2022-07-10T01:20:56;19.50;99.90
2663;DHT22;49701;48.072;7.800;2022-07-10T01:23:22;19.50;99.90
2663;DHT22;49701;48.072;7.800;2022-07-10T01:25:49;19.50;99.90
2663;DHT22;49701;48.072;7.800;2022-07-10T01:28:16;19.50;99.90
2663;DHT22;49701;48.072;7.800;2022-07-10T01:30:42;19.50;99.90
2663;DHT22;49701;48.072;7.800;2022-07-10T01:33:07;19.50;99.90
2663;DHT22;49701;48.072;7.800;2022-07-10T01:35:33;19.50;99.90
2663;DHT22;49701;48.072;7.800;2022-07-10T01:37:58;19.50;99.90
2663;DHT22;49701;48.072;7.800;2022-07-10T01:40:24;19.40;99.90
2663;DHT22;49701;48.072;7.800;2022-07-10T01:42:49;19.40;99.90
2663;DHT22;49701;48.072;7.800;2022-07-10T01:45:16;19.30;99.90
2663;DHT22;49701;48.072;7.800;2022-07-10T01:47:42;19.20;99.90
2663;DHT22;49701;48.072;7.800;2022-07-10T01:50:09;19.10;99.90
2663;DHT22;49701;48.072;7.800;2022-07-10T01:52:34;19.10;99.90
2663;DHT22;49701;48.072;7.800;2022-07-10T01:55:00;19.00;99.90
2663;DHT22;49701;48.072;7.800;2022-07-10T01:57:25;19.10;99.90
2663;DHT22;49701;48.072;7.800;2022-07-10T01:59:51;19.10;99.90
2663;DHT22;49701;48.072;7.800;2022-07-10T02:02:17;19.00;99.90
2663;DHT22;49701;48.072;7.800;2022-07-10T02:04:42;19.00;99.90
2663;DHT22;49701;48.072;7.800;2022-07-10T02:07:13;19.00;99.90
2663;DHT22;49701;48.072;7.800;2022-07-10T02:09:41;19.00;99.90
2663;DHT22;49701;48.072;7.800;2022-07-10T02:12:08;19.00;99.90
2663;DHT22;49701;48.072;7.800;2022-07-10T02:14:34;18.90;99.90
2663;DHT22;49701;48.072;7.800;2022-07-10T02:17:00;18.90;99.90
2663;DHT22;49701;48.072;7.800;2022-07-10T02:19:25;18.90;99.90
2663;DHT22;49701;48.072;7.800;2022-07-10T02:21:52;18.80;99.90
2663;DHT22;49701;48.072;7.800;2022-07-10T02:24:17;18.90;99.90
2663;DHT22;49701;48.072;7.800;2022-07-10T02:26:43;18.80;99.90
2663;DHT22;49701;48.072;7.800;2022-07-10T02:29:08;18.70;99.90
2663;DHT22;49701;48.072;7.800;2022-07-10T02:31:34;18.70;99.90
2663;DHT22;49701;48.072;7.800;2022-07-10T02:34:02;18.70;99.90
2663;DHT22;49701;48.072;7.800;2022-07-10T02:36:27;18.70;99.90
2663;DHT22;49701;48.072;7.800;2022-07-10T02:38:53;18.70;99.90
2663;DHT22;49701;48.072;7.800;2022-07-10T02:41:19;18.70;99.90
2663;DHT22;49701;48.072;7.800;2022-07-10T02:43:44;18.70;99.90
2663;DHT22;49701;48.072;7.800;2022-07-10T02:46:10;18.60;99.90
2663;DHT22;49701;48.072;7.800;2022-07-10T02:48:35;18.60;99.90
2663;DHT22;49701;48.072;7.800;2022-07-10T02:51:01;18.60;99.90
2663;DHT22;49701;48.072;7.800;2022-07-10T02:53:26;18.60;99.90
2663;DHT22;49701;48.072;7.800;2022-07-10T02:55:52;18.60;99.90
2663;DHT22;49701;48.072;7.800;2022-07-10T02:58:18;18.50;99.90
2663;DHT22;49701;48.072;7.800;2022-07-10T03:00:45;18.50;99.90
2663;DHT22;49701;48.072;7.800;2022-07-10T03:03:12;18.50;99.90
2663;DHT22;49701;48.072;7.800;2022-07-10T03:05:38;18.50;99.90
2663;DHT22;49701;48.072;7.800;2022-07-10T03:08:04;18.40;99.90
2663;DHT22;49701;48.072;7.800;2022-07-10T03:10:29;18.40;99.90
2663;DHT22;49701;48.072;7.800;2022-07-10T03:12:55;18.40;99.90
2663;DHT22;49701;48.072;7.800;2022-07-10T03:15:20;18.40;99.90
2663;DHT22;49701;48.072;7.800;2022-07-10T03:17:46;18.30;99.90
2663;DHT22;49701;48.072;7.800;2022-07-10T03:20:12;18.30;99.90
2663;DHT22;49701;48.072;7.800;2022-07-10T03:22:37;18.30;99.90
2663;DHT22;49701;48.072;7.800;2022-07-10T03:25:03;18.30;99.90
2663;DHT22;49701;48.072;7.800;2022-07-10T03:27:29;18.30;99.90
2663;DHT22;49701;48.072;7.800;2022-07-10T03:29:54;18.30;99.90
2663;DHT22;49701;48.072;7.800;2022-07-10T03:32:20;18.30;99.90
2663;DHT22;49701;48.072;7.800;2022-07-10T03:34:45;18.20;99.90
2663;DHT22;49701;48.072;7.800;2022-07-10T03:37:11;18.20;99.90
2663;DHT22;49701;48.072;7.800;2022-07-10T03:39:37;18.20;99.90
2663;DHT22;49701;48.072;7.800;2022-07-10T03:42:02;18.20;99.90
2663;DHT22;49701;48.072;7.800;2022-07-10T03:44:28;18.10;99.90
2663;DHT22;49701;48.072;7.800;2022-07-10T03:46:53;18.10;99.90
2663;DHT22;49701;48.072;7.800;2022-07-10T03:49:19;18.10;99.90
2663;DHT22;49701;48.072;7.800;2022-07-10T03:51:44;18.00;99.90
2663;DHT22;49701;48.072;7.800;2022-07-10T03:54:10;18.00;99.90
2663;DHT22;49701;48.072;7.800;2022-07-10T03:56:36;18.00;99.90
2663;DHT22;49701;48.072;7.800;2022-07-10T03:59:20;18.00;99.90
2663;DHT22;49701;48.072;7.800;2022-07-10T04:01:45;17.90;99.90
2663;DHT22;49701;48.072;7.800;2022-07-10T04:04:11;17.90;99.90
2663;DHT22;49701;48.072;7.800;2022-07-10T04:06:36;17.90;99.90
2663;DHT22;49701;48.072;7.800;2022-07-10T04:09:05;17.90;99.90
2663;DHT22;49701;48.072;7.800;2022-07-10T04:11:31;17.90;99.90
2663;DHT22;49701;48.072;7.800;2022-07-10T04:13:57;17.90;99.90
2663;DHT22;49701;48.072;7.800;2022-07-10T04:16:22;17.90;99.90
2663;DHT22;49701;48.072;7.800;2022-07-10T04:18:48;17.90;99.90
2663;DHT22;49701;48.072;7.800;2022-07-10T04:21:14;17.90;99.90
2663;DHT22;49701;48.072;7.800;2022-07-10T04:23:40;18.00;99.90
2663;DHT22;49701;48.072;7.800;2022-07-10T04:26:05;17.90;99.90
2663;DHT22;49701;48.072;7.800;2022-07-10T04:28:31;18.00;99.90
2663;DHT22;49701;48.072;7.800;2022-07-10T04:30:57;18.00;99.90
2663;DHT22;49701;48.072;7.800;2022-07-10T04:33:22;18.00;99.90
2663;DHT22;49701;48.072;7.800;2022-07-10T04:35:48;18.00;99.90
2663;DHT22;49701;48.072;7.800;2022-07-10T04:38:13;18.00;99.90
2663;DHT22;49701;48.072;7.800;2022-07-10T04:40:39;18.10;99.90
2663;DHT22;49701;48.072;7.800;2022-07-10T04:43:04;18.10;99.90
2663;DHT22;49701;48.072;7.800;2022-07-10T04:45:30;18.20;99.90
2663;DHT22;49701;48.072;7.800;2022-07-10T04:47:55;18.20;99.90
2663;DHT22;49701;48.072;7.800;2022-07-10T04:50:21;18.20;99.90
2663;DHT22;49701;48.072;7.800;2022-07-10T04:52:46;18.20;99.90
2663;DHT22;49701;48.072;7.800;2022-07-10T04:55:12;18.30;99.90
2663;DHT22;49701;48.072;7.800;2022-07-10T04:57:38;18.30;99.90
2663;DHT22;49701;48.072;7.800;2022-07-10T05:00:04;18.30;99.90
2663;DHT22;49701;48.072;7.800;2022-07-10T05:02:30;18.30;99.90
2663;DHT22;49701;48.072;7.800;2022-07-10T05:04:55;18.30;99.90
2663;DHT22;49701;48.072;7.800;2022-07-10T05:07:21;18.30;99.90
2663;DHT22;49701;48.072;7.800;2022-07-10T05:09:47;18.40;99.90
2663;DHT22;49701;48.072;7.800;2022-07-10T05:12:12;18.40;99.90
2663;DHT22;49701;48.072;7.800;2022-07-10T05:14:38;18.50;99.90
2663;DHT22;49701;48.072;7.800;2022-07-10T05:17:03;18.50;99.90
2663;DHT22;49701;48.072;7.800;2022-07-10T05:19:29;18.60;99.90
2663;DHT22;49701;48.072;7.800;2022-07-10T05:21:54;18.60;99.90
2663;DHT22;49701;48.072;7.800;2022-07-10T05:24:20;18.60;99.90
2663;DHT22;49701;48.072;7.800;2022-07-10T05:26:46;18.60;99.90
2663;DHT22;49701;48.072;7.800;2022-07-10T05:29:12;18.60;99.90
2663;DHT22;49701;48.072;7.800;2022-07-10T05:31:37;18.70;99.90
2663;DHT22;49701;48.072;7.800;2022-07-10T05:34:03;18.70;99.90
2663;DHT22;49701;48.072;7.800;2022-07-10T05:36:30;18.70;99.90
2663;DHT22;49701;48.072;7.800;2022-07-10T05:38:55;18.80;99.90
2663;DHT22;49701;48.072;7.800;2022-07-10T05:41:22;18.80;99.90
2663;DHT22;49701;48.072;7.800;2022-07-10T05:43:55;18.90;99.90
2663;DHT22;49701;48.072;7.800;2022-07-10T05:46:22;18.90;99.90
2663;DHT22;49701;48.072;7.800;2022-07-10T05:48:47;18.90;99.90
2663;DHT22;49701;48.072;7.800;2022-07-10T05:51:13;18.90;99.90
2663;DHT22;49701;48.072;7.800;2022-07-10T05:53:38;19.00;99.90
2663;DHT22;49701;48.072;7.800;2022-07-10T05:56:04;19.00;99.90
2663;DHT22;49701;48.072;7.800;2022-07-10T05:58:30;19.10;99.90
2663;DHT22;49701;48.072;7.800;2022-07-10T06:00:56;19.20;99.90
2663;DHT22;49701;48.072;7.800;2022-07-10T06:03:21;19.20;99.90
2663;DHT22;49701;48.072;7.800;2022-07-10T06:05:47;19.30;99.90
2663;DHT22;49701;48.072;7.800;2022-07-10T06:08:13;19.40;99.90
2663;DHT22;49701;48.072;7.800;2022-07-10T06:10:39;19.50;99.90
2663;DHT22;49701;48.072;7.800;2022-07-10T06:13:06;19.50;99.90
2663;DHT22;49701;48.072;7.800;2022-07-10T06:15:31;19.60;99.90
2663;DHT22;49701;48.072;7.800;2022-07-10T06:17:57;19.70;99.90
2663;DHT22;49701;48.072;7.800;2022-07-10T06:20:25;19.90;99.90
2663;DHT22;49701;48.072;7.800;2022-07-10T06:22:51;20.00;99.90
2663;DHT22;49701;48.072;7.800;2022-07-10T06:25:17;20.10;99.90
2663;DHT22;49701;48.072;7.800;2022-07-10T06:27:42;20.20;99.90
2663;DHT22;49701;48.072;7.800;2022-07-10T06:30:08;20.20;99.90
2663;DHT22;49701;48.072;7.800;2022-07-10T06:32:34;20.30;99.90
2663;DHT22;49701;48.072;7.800;2022-07-10T06:35:00;20.30;99.90
2663;DHT22;49701;48.072;7.800;2022-07-10T06:37:30;20.40;99.90
2663;DHT22;49701;48.072;7.800;2022-07-10T06:39:56;20.40;99.90
2663;DHT22;49701;48.072;7.800;2022-07-10T06:42:22;20.50;99.90
2663;DHT22;49701;48.072;7.800;2022-07-10T06:44:48;20.50;99.90
2663;DHT22;49701;48.072;7.800;2022-07-10T06:47:15;20.60;99.90
2663;DHT22;49701;48.072;7.800;2022-07-10T06:50:00;20.70;99.90
2663;DHT22;49701;48.072;7.800;2022-07-10T06:52:26;20.80;99.90
2663;DHT22;49701;48.072;7.800;2022-07-10T06:54:52;21.00;99.90
2663;DHT22;49701;48.072;7.800;2022-07-10T06:57:18;21.00;99.90
2663;DHT22;49701;48.072;7.800;2022-07-10T06:59:45;21.10;99.90
2663;DHT22;49701;48.072;7.800;2022-07-10T07:02:11;21.20;99.90
2663;DHT22;49701;48.072;7.800;2022-07-10T07:04:36;21.30;99.90
2663;DHT22;49701;48.072;7.800;2022-07-10T07:07:02;21.30;99.90
2663;DHT22;49701;48.072;7.800;2022-07-10T07:09:28;21.30;99.90
2663;DHT22;49701;48.072;7.800;2022-07-10T07:11:54;21.20;99.90
2663;DHT22;49701;48.072;7.800;2022-07-10T07:14:19;21.30;99.90
2663;DHT22;49701;48.072;7.800;2022-07-10T07:16:45;21.30;99.90
2663;DHT22;49701;48.072;7.800;2022-07-10T07:19:12;21.40;99.90
2663;DHT22;49701;48.072;7.800;2022-07-10T07:21:43;21.50;99.90
2663;DHT22;49701;48.072;7.800;2022-07-10T07:24:27;21.60;99.90
2663;DHT22;49701;48.072;7.800;2022-07-10T07:26:53;21.70;99.90
2663;DHT22;49701;48.072;7.800;2022-07-10T07:29:19;21.80;99.90
2663;DHT22;49701;48.072;7.800;2022-07-10T07:31:45;21.90;99.90
2663;DHT22;49701;48.072;7.800;2022-07-10T07:34:10;22.00;99.90
2663;DHT22;49701;48.072;7.800;2022-07-10T07:36:36;22.10;99.90
2663;DHT22;49701;48.072;7.800;2022-07-10T07:39:03;22.10;99.90
2663;DHT22;49701;48.072;7.800;2022-07-10T07:41:28;22.30;99.90
2663;DHT22;49701;48.072;7.800;2022-07-10T07:43:54;22.40;99.90
2663;DHT22;49701;48.072;7.800;2022-07-10T07:46:20;22.50;99.90
2663;DHT22;49701;48.072;7.800;2022-07-10T07:48:46;22.60;99.90
2663;DHT22;49701;48.072;7.800;2022-07-10T07:51:12;22.70;99.90
2663;DHT22;49701;48.072;7.800;2022-07-10T07:53:38;22.80;99.90
2663;DHT22;49701;48.072;7.800;2022-07-10T07:56:04;22.90;99.90
2663;DHT22;49701;48.072;7.800;2022-07-10T07:58:30;23.10;99.90
2663;DHT22;49701;48.072;7.800;2022-07-10T08:00:55;23.20;99.90
2663;DHT22;49701;48.072;7.800;2022-07-10T08:03:22;23.30;99.90
2663;DHT22;49701;48.072;7.800;2022-07-10T08:05:47;23.40;99.90
2663;DHT22;49701;48.072;7.800;2022-07-10T08:08:13;23.40;99.90
2663;DHT22;49701;48.072;7.800;2022-07-10T08:10:39;23.60;99.90
2663;DHT22;49701;48.072;7.800;2022-07-10T08:13:05;23.70;99.90
2663;DHT22;49701;48.072;7.800;2022-07-10T08:15:30;23.80;99.90
2663;DHT22;49701;48.072;7.800;2022-07-10T08:17:57;24.00;99.90
2663;DHT22;49701;48.072;7.800;2022-07-10T08:20:25;24.10;99.90
2663;DHT22;49701;48.072;7.800;2022-07-10T08:22:51;24.00;99.90
2663;DHT22;49701;48.072;7.800;2022-07-10T08:25:19;23.90;99.90
2663;DHT22;49701;48.072;7.800;2022-07-10T08:27:45;23.90;99.90
2663;DHT22;49701;48.072;7.800;2022-07-10T08:30:11;24.10;99.90
2663;DHT22;49701;48.072;7.800;2022-07-10T08:32:40;24.30;99.50
2663;DHT22;49701;48.072;7.800;2022-07-10T08:35:07;24.40;99.30
2663;DHT22;49701;48.072;7.800;2022-07-10T08:37:40;24.50;99.00
2663;DHT22;49701;48.072;7.800;2022-07-10T08:40:08;24.70;98.80
2663;DHT22;49701;48.072;7.800;2022-07-10T08:42:34;24.80;98.50
2663;DHT22;49701;48.072;7.800;2022-07-10T08:45:00;25.10;98.10
2663;DHT22;49701;48.072;7.800;2022-07-10T08:47:28;25.30;97.60
2663;DHT22;49701;48.072;7.800;2022-07-10T08:49:56;25.50;96.90
2663;DHT22;49701;48.072;7.800;2022-07-10T08:55:24;26.00;96.00
2663;DHT22;49701;48.072;7.800;2022-07-10T08:57:50;26.20;95.40
2663;DHT22;49701;48.072;7.800;2022-07-10T09:00:16;26.40;95.00
2663;DHT22;49701;48.072;7.800;2022-07-10T09:02:42;26.40;94.70
2663;DHT22;49701;48.072;7.800;2022-07-10T09:05:07;26.40;94.50
2663;DHT22;49701;48.072;7.800;2022-07-10T09:07:34;26.40;94.20
2663;DHT22;49701;48.072;7.800;2022-07-10T09:10:00;26.40;94.10
2663;DHT22;49701;48.072;7.800;2022-07-10T09:12:30;26.40;93.60
2663;DHT22;49701;48.072;7.800;2022-07-10T09:15:17;26.50;93.40
2663;DHT22;49701;48.072;7.800;2022-07-10T09:17:49;26.60;93.10
2663;DHT22;49701;48.072;7.800;2022-07-10T09:20:25;26.60;93.10
2663;DHT22;49701;48.072;7.800;2022-07-10T09:22:51;26.80;93.00
2663;DHT22;49701;48.072;7.800;2022-07-10T09:25:18;27.00;92.60
2663;DHT22;49701;48.072;7.800;2022-07-10T09:27:53;27.00;92.20
2663;DHT22;49701;48.072;7.800;2022-07-10T09:30:38;27.10;91.70
2663;DHT22;49701;48.072;7.800;2022-07-10T09:33:23;27.20;91.30
2663;DHT22;49701;48.072;7.800;2022-07-10T09:43:53;27.60;90.90
2663;DHT22;49701;48.072;7.800;2022-07-10T09:46:20;27.80;90.60
2663;DHT22;49701;48.072;7.800;2022-07-10T09:48:47;27.90;90.20
2663;DHT22;49701;48.072;7.800;2022-07-10T09:51:12;27.90;90.20
2663;DHT22;49701;48.072;7.800;2022-07-10T09:53:43;27.90;89.70
2663;DHT22;49701;48.072;7.800;2022-07-10T09:56:11;27.90;89.10
2663;DHT22;49701;48.072;7.800;2022-07-10T09:58:38;27.90;88.30
2663;DHT22;49701;48.072;7.800;2022-07-10T10:01:08;28.00;88.00
2663;DHT22;49701;48.072;7.800;2022-07-10T10:03:38;28.10;87.80
2663;DHT22;49701;48.072;7.800;2022-07-10T10:06:16;28.10;87.00
2663;DHT22;49701;48.072;7.800;2022-07-10T10:11:19;28.00;86.40
2663;DHT22;49701;48.072;7.800;2022-07-10T10:13:49;28.10;86.80
2663;DHT22;49701;48.072;7.800;2022-07-10T10:16:15;28.40;85.70
2663;DHT22;49701;48.072;7.800;2022-07-10T10:18:43;28.60;84.70
2663;DHT22;49701;48.072;7.800;2022-07-10T10:21:27;28.70;83.50
2663;DHT22;49701;48.072;7.800;2022-07-10T10:23:54;28.70;83.20
2663;DHT22;49701;48.072;7.800;2022-07-10T10:26:21;28.70;83.00
2663;DHT22;49701;48.072;7.800;2022-07-10T10:28:47;28.80;81.90
2663;DHT22;49701;48.072;7.800;2022-07-10T10:31:13;28.80;82.00
2663;DHT22;49701;48.072;7.800;2022-07-10T10:33:43;28.90;82.10
2663;DHT22;49701;48.072;7.800;2022-07-10T10:36:12;28.90;81.70
2663;DHT22;49701;48.072;7.800;2022-07-10T10:41:39;29.10;81.00
2663;DHT22;49701;48.072;7.800;2022-07-10T10:46:35;29.20;80.40
2663;DHT22;49701;48.072;7.800;2022-07-10T10:49:05;29.40;79.00
2663;DHT22;49701;48.072;7.800;2022-07-10T10:54:25;29.70;77.10
2663;DHT22;49701;48.072;7.800;2022-07-10T10:59:47;29.90;75.20
2663;DHT22;49701;48.072;7.800;2022-07-10T11:04:51;30.20;74.60
2663;DHT22;49701;48.072;7.800;2022-07-10T11:10:35;30.40;73.20
2663;DHT22;49701;48.072;7.800;2022-07-10T11:13:03;30.50;73.00
2663;DHT22;49701;48.072;7.800;2022-07-10T11:15:30;30.60;72.00
2663;DHT22;49701;48.072;7.800;2022-07-10T11:18:19;30.60;71.30
2663;DHT22;49701;48.072;7.800;2022-07-10T11:20:51;30.70;71.20
2663;DHT22;49701;48.072;7.800;2022-07-10T11:23:56;30.80;70.20
2663;DHT22;49701;48.072;7.800;2022-07-10T11:28:59;31.00;68.50
2663;DHT22;49701;48.072;7.800;2022-07-10T11:31:27;31.30;67.70
2663;DHT22;49701;48.072;7.800;2022-07-10T11:33:55;31.30;66.60
2663;DHT22;49701;48.072;7.800;2022-07-10T11:36:25;31.40;65.80
2663;DHT22;49701;48.072;7.800;2022-07-10T11:38:58;31.50;65.10
2663;DHT22;49701;48.072;7.800;2022-07-10T11:41:24;31.50;64.00
2663;DHT22;49701;48.072;7.800;2022-07-10T11:46:16;31.70;63.40
2663;DHT22;49701;48.072;7.800;2022-07-10T11:48:42;31.70;62.30
2663;DHT22;49701;48.072;7.800;2022-07-10T11:51:20;31.70;61.80
2663;DHT22;49701;48.072;7.800;2022-07-10T11:54:13;31.70;59.60
2663;DHT22;49701;48.072;7.800;2022-07-10T11:56:42;31.80;59.00
2663;DHT22;49701;48.072;7.800;2022-07-10T11:59:12;32.00;58.40
2663;DHT22;49701;48.072;7.800;2022-07-10T12:01:48;32.10;59.00
2663;DHT22;49701;48.072;7.800;2022-07-10T12:04:15;32.20;58.90
2663;DHT22;49701;48.072;7.800;2022-07-10T12:06:43;32.20;59.20
2663;DHT22;49701;48.072;7.800;2022-07-10T12:09:14;32.30;59.10
2663;DHT22;49701;48.072;7.800;2022-07-10T12:11:40;32.40;58.90
2663;DHT22;49701;48.072;7.800;2022-07-10T12:14:19;32.60;58.70
2663;DHT22;49701;48.072;7.800;2022-07-10T12:16:47;32.60;58.00
2663;DHT22;49701;48.072;7.800;2022-07-10T12:19:15;32.40;58.10
2663;DHT22;49701;48.072;7.800;2022-07-10T12:21:42;32.20;58.70
2663;DHT22;49701;48.072;7.800;2022-07-10T12:24:08;32.30;58.20
2663;DHT22;49701;48.072;7.800;2022-07-10T12:26:36;32.30;57.90
2663;DHT22;49701;48.072;7.800;2022-07-10T12:29:03;32.30;58.00
2663;DHT22;49701;48.072;7.800;2022-07-10T12:31:31;32.30;57.20
2663;DHT22;49701;48.072;7.800;2022-07-10T12:34:01;32.30;57.20
2663;DHT22;49701;48.072;7.800;2022-07-10T12:36:48;32.30;56.80
2663;DHT22;49701;48.072;7.800;2022-07-10T12:39:22;32.10;56.80
2663;DHT22;49701;48.072;7.800;2022-07-10T12:42:02;32.10;56.90
2663;DHT22;49701;48.072;7.800;2022-07-10T12:44:43;32.10;56.40
2663;DHT22;49701;48.072;7.800;2022-07-10T12:47:17;32.10;56.80
2663;DHT22;49701;48.072;7.800;2022-07-10T12:50:05;32.00;56.80
2663;DHT22;49701;48.072;7.800;2022-07-10T12:52:36;31.90;56.60
2663;DHT22;49701;48.072;7.800;2022-07-10T12:55:20;32.00;56.40
2663;DHT22;49701;48.072;7.800;2022-07-10T13:00:23;32.10;56.20
2663;DHT22;49701;48.072;7.800;2022-07-10T13:03:00;32.10;55.50
2663;DHT22;49701;48.072;7.800;2022-07-10T13:08:22;32.00;55.10
2663;DHT22;49701;48.072;7.800;2022-07-10T13:10:55;31.90;54.80
2663;DHT22;49701;48.072;7.800;2022-07-10T13:13:22;32.00;54.80
2663;DHT22;49701;48.072;7.800;2022-07-10T13:15:48;32.00;54.50
2663;DHT22;49701;48.072;7.800;2022-07-10T13:18:24;32.10;54.20
2663;DHT22;49701;48.072;7.800;2022-07-10T13:20:52;31.90;54.20
2663;DHT22;49701;48.072;7.800;2022-07-10T13:23:18;31.80;54.80
2663;DHT22;49701;48.072;7.800;2022-07-10T13:25:48;31.70;54.90
2663;DHT22;49701;48.072;7.800;2022-07-10T13:28:14;31.80;54.70
2663;DHT22;49701;48.072;7.800;2022-07-10T13:30:41;31.90;54.50
2663;DHT22;49701;48.072;7.800;2022-07-10T13:33:07;32.00;53.40
2663;DHT22;49701;48.072;7.800;2022-07-10T13:35:33;31.70;54.40
2663;DHT22;49701;48.072;7.800;2022-07-10T13:37:59;31.70;54.70
2663;DHT22;49701;48.072;7.800;2022-07-10T13:40:31;31.70;54.00
2663;DHT22;49701;48.072;7.800;2022-07-10T13:42:58;31.70;53.80
2663;DHT22;49701;48.072;7.800;2022-07-10T13:45:24;31.80;54.10
2663;DHT22;49701;48.072;7.800;2022-07-10T13:47:51;31.80;54.40
2663;DHT22;49701;48.072;7.800;2022-07-10T13:50:20;31.80;53.80
2663;DHT22;49701;48.072;7.800;2022-07-10T13:52:46;31.70;53.60
2663;DHT22;49701;48.072;7.800;2022-07-10T13:55:12;31.50;53.20
2663;DHT22;49701;48.072;7.800;2022-07-10T13:57:38;31.40;53.80
2663;DHT22;49701;48.072;7.800;2022-07-10T14:00:05;31.50;53.40
2663;DHT22;49701;48.072;7.800;2022-07-10T14:02:31;31.50;53.00
2663;DHT22;49701;48.072;7.800;2022-07-10T14:04:56;31.30;53.20
2663;DHT22;49701;48.072;7.800;2022-07-10T14:07:22;31.20;52.40
2663;DHT22;49701;48.072;7.800;2022-07-10T14:09:47;31.10;52.70
2663;DHT22;49701;48.072;7.800;2022-07-10T14:12:13;31.10;53.50
2663;DHT22;49701;48.072;7.800;2022-07-10T14:14:39;30.90;54.40
2663;DHT22;49701;48.072;7.800;2022-07-10T14:17:04;30.80;54.90
2663;DHT22;49701;48.072;7.800;2022-07-10T14:19:30;30.60;54.70
2663;DHT22;49701;48.072;7.800;2022-07-10T14:21:55;30.50;54.00
2663;DHT22;49701;48.072;7.800;2022-07-10T14:24:21;30.40;53.60
2663;DHT22;49701;48.072;7.800;2022-07-10T14:26:48;30.30;53.80
2663;DHT22;49701;48.072;7.800;2022-07-10T14:29:13;30.30;53.50
2663;DHT22;49701;48.072;7.800;2022-07-10T14:31:39;30.30;53.60
2663;DHT22;49701;48.072;7.800;2022-07-10T14:34:05;30.40;53.60
2663;DHT22;49701;48.072;7.800;2022-07-10T14:36:31;30.50;53.20
2663;DHT22;49701;48.072;7.800;2022-07-10T14:38:57;30.50;53.00
2663;DHT22;49701;48.072;7.800;2022-07-10T14:41:25;30.40;52.60
2663;DHT22;49701;48.072;7.800;2022-07-10T14:43:51;30.30;53.40
2663;DHT22;49701;48.072;7.800;2022-07-10T14:46:17;30.20;53.60
2663;DHT22;49701;48.072;7.800;2022-07-10T14:48:42;30.20;54.00
2663;DHT22;49701;48.072;7.800;2022-07-10T14:51:08;30.10;53.50
2663;DHT22;49701;48.072;7.800;2022-07-10T14:53:35;30.10;54.00
2663;DHT22;49701;48.072;7.800;2022-07-10T14:56:02;30.00;53.20
2663;DHT22;49701;48.072;7.800;2022-07-10T14:58:28;29.90;52.50
2663;DHT22;49701;48.072;7.800;2022-07-10T15:00:55;29.90;52.50
2663;DHT22;49701;48.072;7.800;2022-07-10T15:03:22;29.70;52.70
2663;DHT22;49701;48.072;7.800;2022-07-10T15:05:47;29.60;52.50
2663;DHT22;49701;48.072;7.800;2022-07-10T15:08:17;29.50;52.60
2663;DHT22;49701;48.072;7.800;2022-07-10T15:10:43;29.40;52.50
2663;DHT22;49701;48.072;7.800;2022-07-10T15:13:11;29.30;52.00
2663;DHT22;49701;48.072;7.800;2022-07-10T15:15:37;29.30;51.70
2663;DHT22;49701;48.072;7.800;2022-07-10T15:18:02;29.30;51.90
2663;DHT22;49701;48.072;7.800;2022-07-10T15:20:28;29.30;52.30
2663;DHT22;49701;48.072;7.800;2022-07-10T15:22:54;29.10;51.60
2663;DHT22;49701;48.072;7.800;2022-07-10T15:25:19;29.00;52.20
2663;DHT22;49701;48.072;7.800;2022-07-10T15:27:45;28.90;51.90
2663;DHT22;49701;48.072;7.800;2022-07-10T15:30:11;28.80;51.70
2663;DHT22;49701;48.072;7.800;2022-07-10T15:32:38;28.70;51.80
2663;DHT22;49701;48.072;7.800;2022-07-10T15:35:04;28.60;51.90
2663;DHT22;49701;48.072;7.800;2022-07-10T15:37:29;28.50;52.40
2663;DHT22;49701;48.072;7.800;2022-07-10T15:39:55;28.40;52.70
2663;DHT22;49701;48.072;7.800;2022-07-10T15:42:21;28.30;52.20
2663;DHT22;49701;48.072;7.800;2022-07-10T15:44:46;28.10;52.50
2663;DHT22;49701;48.072;7.800;2022-07-10T15:47:12;28.00;52.70
2663;DHT22;49701;48.072;7.800;2022-07-10T15:49:38;28.00;52.60
2663;DHT22;49701;48.072;7.800;2022-07-10T15:52:04;28.00;52.90
2663;DHT22;49701;48.072;7.800;2022-07-10T15:54:30;28.00;52.60
2663;DHT22;49701;48.072;7.800;2022-07-10T15:56:56;27.90;53.20
2663;DHT22;49701;48.072;7.800;2022-07-10T15:59:22;27.80;54.10
2663;DHT22;49701;48.072;7.800;2022-07-10T16:01:50;27.70;54.90
2663;DHT22;49701;48.072;7.800;2022-07-10T16:04:15;27.60;54.20
2663;DHT22;49701;48.072;7.800;2022-07-10T16:06:41;27.60;53.90
2663;DHT22;49701;48.072;7.800;2022-07-10T16:09:07;27.50;54.50
2663;DHT22;49701;48.072;7.800;2022-07-10T16:11:32;27.40;54.90
2663;DHT22;49701;48.072;7.800;2022-07-10T16:13:58;27.30;55.30
2663;DHT22;49701;48.072;7.800;2022-07-10T16:16:24;27.20;56.30
2663;DHT22;49701;48.072;7.800;2022-07-10T16:18:50;27.20;56.90
2663;DHT22;49701;48.072;7.800;2022-07-10T16:21:19;27.00;57.50
2663;DHT22;49701;48.072;7.800;2022-07-10T16:23:44;27.00;58.00
2663;DHT22;49701;48.072;7.800;2022-07-10T16:26:10;27.00;58.40